CFS weather

Coffs Harbour Airport
Coffs Harbour, New South Wales, Australia

Public forecast

Using degrees Celsius for public forecast. Weather courtesy of forecast.io.

METAR (pilot weather report)

Closest report is Grafton Airport, 34.0 nm (62.9 km) N. Retrieved 2019/04/20 13:00 UTC (51 minutes ago):

YGFN 201300Z AUTO 36001KT 9000 // NCD 18/17 Q1024

TAF (pilot weather forecast)

Closest forecast is Taree Airport, 99.1 nm (183.5 km) SSW. Retrieved 2019/04/20 08:03 UTC (6 hours ago):

TAF YTRE 200650Z 2008/2020 08010KT 9999 -SHRA BKN030 FM200900 VRB03KT 9999 -SHRA SCT010 BKN020 PROB30 2015/2020 2000 BR BKN005